Time;durP1;ratioP1;P1;durP2;ratioP2;P2;SDS_P1;SDS_P2;PMS_P1;PMS_P2;Temp;Humidity;BMP_temperature;BMP_pressure;BME280_temperature;BME280_humidity;BME280_pressure;Samples;Min_cycle;Max_cycle;Signal;HPM_P1;HPM_P2
2023/03/21 00:00:20;;;;;;;;;;;;;;;7.41;100.00;92774.72;4962550;28;19933;-77
2023/03/21 00:02:45;;;;;;;;;;;;;;;7.41;100.00;92775.50;4964630;28;20304;-78
2023/03/21 00:05:11;;;;;;;;;;;;;;;7.41;100.00;92765.09;4966001;28;19918;-78
2023/03/21 00:07:36;;;;;;;;;;;;;;;7.42;100.00;92760.66;4961581;28;20481;-78
2023/03/21 00:10:02;;;;;;;;;;;;;;;7.42;100.00;92760.66;4987379;28;20030;-78
2023/03/21 00:12:31;;;;;;;;;;;;;;;7.42;100.00;92758.03;4965010;28;19918;-78
2023/03/21 00:15:03;;;;;;;;;;;;;;;7.41;100.00;92752.06;4965493;28;19922;-78
2023/03/21 00:17:32;;;;;;;;;;;;;;;7.40;100.00;92755.69;4966165;28;19918;-79
2023/03/21 00:19:58;;;;;;;;;;;;;;;7.41;100.00;92744.25;4969568;28;19918;-78
2023/03/21 00:22:24;;;;;;;;;;;;;;;7.43;100.00;92749.97;4969661;28;19914;-78
2023/03/21 00:24:51;;;;;;;;;;;;;;;7.43;100.00;92741.38;4968664;28;19914;-78
2023/03/21 00:27:18;;;;;;;;;;;;;;;7.42;100.00;92739.81;4965767;28;19924;-78
2023/03/21 00:29:44;;;;;;;;;;;;;;;7.43;100.00;92736.97;4971686;28;19918;-78
2023/03/21 00:32:09;;;;;;;;;;;;;;;7.48;100.00;92733.56;4966853;28;19981;-78
2023/03/21 00:34:37;;;;;;;;;;;;;;;7.47;100.00;92727.56;4968547;28;20404;-79
2023/03/21 00:37:02;;;;;;;;;;;;;;;7.48;100.00;92720.53;4983608;28;20624;-79
2023/03/21 00:39:28;;;;;;;;;;;;;;;7.47;100.00;92717.13;4964356;28;20003;-78
2023/03/21 00:41:53;;;;;;;;;;;;;;;7.47;100.00;92717.13;4972006;28;20331;-79
2023/03/21 00:44:20;;;;;;;;;;;;;;;7.70;100.00;92715.84;4969376;28;20032;-78
2023/03/21 00:46:45;;;;;;;;;;;;;;;7.58;100.00;92714.53;4966088;28;19922;-78
2023/03/21 00:49:11;;;;;;;;;;;;;;;7.48;100.00;92716.13;4967431;28;19919;-78
2023/03/21 00:51:36;;;;;;;;;;;;;;;7.43;100.00;92716.13;4970096;28;19918;-79
2023/03/21 00:54:04;;;;;;;;;;;;;;;7.37;100.00;92705.97;4971272;28;19977;-79
2023/03/21 00:56:30;;;;;;;;;;;;;;;7.36;100.00;92699.16;4966940;28;20377;-78
2023/03/21 00:58:55;;;;;;;;;;;;;;;7.43;100.00;92700.50;4970410;28;19924;-78
2023/03/21 01:01:21;;;;;;;;;;;;;;;7.40;100.00;92692.41;4962755;28;19969;-78
2023/03/21 01:04:03;;;;;;;;;;;;;;;7.33;100.00;92691.88;4967727;28;20021;-78
2023/03/21 01:06:29;;;;;;;;;;;;;;;7.26;100.00;92694.75;4966891;28;19918;-79
2023/03/21 01:08:55;;;;;;;;;;;;;;;7.21;100.00;92692.94;4968229;28;19914;-78
2023/03/21 01:11:22;;;;;;;;;;;;;;;7.17;100.00;92697.09;4984883;28;19927;-78
2023/03/21 01:13:48;;;;;;;;;;;;;;;7.15;100.00;92699.16;4969216;28;19970;-77
2023/03/21 01:16:14;;;;;;;;;;;;;;;7.13;100.00;92696.03;4965127;28;19926;-78
2023/03/21 01:18:40;;;;;;;;;;;;;;;7.10;100.00;92696.56;4967255;28;19924;-78
2023/03/21 01:21:08;;;;;;;;;;;;;;;7.09;100.00;92684.56;4966207;28;19918;-79
2023/03/21 01:23:33;;;;;;;;;;;;;;;7.17;100.00;92686.69;4965827;28;19930;-78
2023/03/21 01:25:59;;;;;;;;;;;;;;;7.16;100.00;92687.72;4968660;28;19918;-79
2023/03/21 01:28:25;;;;;;;;;;;;;;;7.15;100.00;92683.53;4963457;28;19918;-78
2023/03/21 01:30:52;;;;;;;;;;;;;;;7.14;100.00;92687.19;4971447;28;20332;-78
2023/03/21 01:33:18;;;;;;;;;;;;;;;7.13;100.00;92680.41;4967584;28;19918;-78
2023/03/21 01:35:45;;;;;;;;;;;;;;;7.13;100.00;92677.81;4965485;28;19914;-79
2023/03/21 01:38:11;;;;;;;;;;;;;;;7.11;100.00;92677.28;4969372;28;19928;-79
2023/03/21 01:40:40;;;;;;;;;;;;;;;7.11;100.00;92672.09;4982854;28;19918;-78
2023/03/21 01:43:20;;;;;;;;;;;;;;;7.08;100.00;92673.38;4979867;28;19977;-78
2023/03/21 01:45:58;;;;;;;;;;;;;;;7.07;100.00;92676.28;4968201;28;19930;-78
2023/03/21 01:48:37;;;;;;;;;;;;;;;7.04;100.00;92672.34;4991490;28;19913;-78
2023/03/21 01:51:03;;;;;;;;;;;;;;;7.04;100.00;92666.34;4967739;28;19918;-79
2023/03/21 01:53:36;;;;;;;;;;;;;;;7.01;100.00;92669.50;4965040;28;19914;-79
2023/03/21 01:56:05;;;;;;;;;;;;;;;6.99;100.00;92666.38;4963274;28;20377;-78
2023/03/21 01:58:55;;;;;;;;;;;;;;;6.95;100.00;92660.88;4968902;28;20335;-79
2023/03/21 02:01:43;;;;;;;;;;;;;;;6.92;100.00;92658.81;4967081;28;20391;-78
2023/03/21 02:04:10;;;;;;;;;;;;;;;6.86;100.00;92660.59;4964277;28;19918;-78
2023/03/21 02:06:59;;;;;;;;;;;;;;;6.84;100.00;92657.47;4965763;28;19946;-78
2023/03/21 02:09:35;;;;;;;;;;;;;;;6.80;100.00;92651.25;4966031;28;19920;-78
2023/03/21 02:12:03;;;;;;;;;;;;;;;6.76;100.00;92657.22;4970033;28;20376;-78
2023/03/21 02:14:31;;;;;;;;;;;;;;;6.73;100.00;92653.28;4949920;28;20286;-78
2023/03/21 02:17:13;;;;;;;;;;;;;;;6.68;100.00;92653.28;4952315;28;19914;-78
2023/03/21 02:19:43;;;;;;;;;;;;;;;6.66;100.00;92650.16;4967010;28;20416;-78
2023/03/21 02:22:24;;;;;;;;;;;;;;;6.62;100.00;92646.50;4965481;28;19961;-78
2023/03/21 02:25:10;;;;;;;;;;;;;;;6.57;100.00;92646.50;4972145;28;19926;-79
2023/03/21 02:27:44;;;;;;;;;;;;;;;6.54;100.00;92653.00;4983252;28;19960;-78
2023/03/21 02:30:11;;;;;;;;;;;;;;;6.53;100.00;92651.47;4984324;28;19921;-78
2023/03/21 02:32:39;;;;;;;;;;;;;;;6.53;100.00;92648.06;4986111;28;19914;-78
2023/03/21 02:35:26;;;;;;;;;;;;;;;6.55;100.00;92653.78;4966953;28;20353;-78
2023/03/21 02:37:56;;;;;;;;;;;;;;;6.56;100.00;92643.13;4972837;28;19921;-78
2023/03/21 02:40:30;;;;;;;;;;;;;;;6.56;100.00;92639.75;4981622;28;19949;-78
2023/03/21 02:43:04;;;;;;;;;;;;;;;6.57;100.00;92636.09;4963850;28;19928;-79
2023/03/21 02:45:37;;;;;;;;;;;;;;;6.58;100.00;92640.28;4971460;28;19925;-78
2023/03/21 02:48:15;;;;;;;;;;;;;;;6.58;100.00;92635.09;4966487;28;19918;-77
2023/03/21 02:50:41;;;;;;;;;;;;;;;6.58;100.00;92628.06;4980490;28;19918;-77
2023/03/21 02:53:09;;;;;;;;;;;;;;;6.57;100.00;92636.88;4964725;28;20009;-77
2023/03/21 02:55:36;;;;;;;;;;;;;;;6.57;100.00;92628.31;4978152;28;19968;-78
2023/03/21 02:58:05;;;;;;;;;;;;;;;6.58;100.00;92617.66;4962835;28;20331;-76
2023/03/21 03:00:32;;;;;;;;;;;;;;;6.58;100.00;92619.47;4968970;28;19921;-77
2023/03/21 03:02:58;;;;;;;;;;;;;;;6.58;100.00;92627.28;4962723;28;20398;-77
2023/03/21 03:05:25;;;;;;;;;;;;;;;6.58;100.00;92615.06;4972325;28;19913;-77
2023/03/21 03:08:10;;;;;;;;;;;;;;;6.59;100.00;92615.81;4982664;28;19914;-77
2023/03/21 03:10:55;;;;;;;;;;;;;;;6.61;100.00;92613.75;4965736;28;20418;-77
2023/03/21 03:13:26;;;;;;;;;;;;;;;6.61;100.00;92611.16;4962986;28;19915;-77
2023/03/21 03:16:11;;;;;;;;;;;;;;;6.62;100.00;92602.28;4963420;28;19929;-77
2023/03/21 03:18:45;;;;;;;;;;;;;;;6.61;100.00;92605.94;4986383;28;19921;-77
2023/03/21 03:21:17;;;;;;;;;;;;;;;6.59;100.00;92606.19;4982715;28;19949;-77
2023/03/21 03:23:43;;;;;;;;;;;;;;;6.59;100.00;92608.03;4976354;28;19918;-77
2023/03/21 03:26:18;;;;;;;;;;;;;;;6.56;100.00;92609.31;4965911;28;19961;-77
2023/03/21 03:28:47;;;;;;;;;;;;;;;6.52;100.00;92603.06;4964889;28;19944;-77
2023/03/21 03:31:20;;;;;;;;;;;;;;;6.51;100.00;92600.72;4974248;28;19914;-77
2023/03/21 03:33:52;;;;;;;;;;;;;;;6.47;100.00;92596.03;4974399;28;19921;-77
2023/03/21 03:36:20;;;;;;;;;;;;;;;6.42;100.00;92603.84;4961358;28;19918;-77
2023/03/21 03:38:47;;;;;;;;;;;;;;;6.36;100.00;92602.25;4944099;28;19918;-77
2023/03/21 03:41:17;;;;;;;;;;;;;;;6.34;100.00;92601.72;4979474;28;19972;-77
2023/03/21 03:43:52;;;;;;;;;;;;;;;6.28;100.00;92602.75;4961457;28;20381;-77
2023/03/21 03:46:24;;;;;;;;;;;;;;;6.23;100.00;92597.53;4961010;28;19914;-76
2023/03/21 03:48:54;;;;;;;;;;;;;;;6.17;100.00;92603.75;4986089;28;19914;-77
2023/03/21 03:51:39;;;;;;;;;;;;;;;6.12;100.00;92599.31;4970357;28;20444;-77
2023/03/21 03:54:25;;;;;;;;;;;;;;;6.10;100.00;92605.81;4966570;28;19959;-77
2023/03/21 03:56:51;;;;;;;;;;;;;;;6.05;100.00;92607.34;4963589;28;19964;-77
2023/03/21 03:59:23;;;;;;;;;;;;;;;6.02;100.00;92605.28;4967831;28;19914;-77
2023/03/21 04:02:08;;;;;;;;;;;;;;;5.99;100.00;92611.00;4964692;28;19922;-77
2023/03/21 04:04:33;;;;;;;;;;;;;;;5.96;100.00;92605.50;4966877;28;20315;-77
2023/03/21 04:06:59;;;;;;;;;;;;;;;5.92;100.00;92599.22;4964983;28;19917;-77
2023/03/21 04:09:28;;;;;;;;;;;;;;;5.90;100.00;92602.09;4966312;28;19914;-77
2023/03/21 04:11:54;;;;;;;;;;;;;;;5.88;100.00;92603.38;4966295;28;19918;-77
2023/03/21 04:14:20;;;;;;;;;;;;;;;5.83;100.00;92601.53;4964188;28;19922;-76
2023/03/21 04:16:46;;;;;;;;;;;;;;;5.79;100.00;92606.47;4962105;28;20443;-77
2023/03/21 04:19:14;;;;;;;;;;;;;;;5.78;100.00;92601.50;4967547;28;19956;-77
2023/03/21 04:21:40;;;;;;;;;;;;;;;5.77;100.00;92607.75;4964446;28;20326;-77
2023/03/21 04:24:06;;;;;;;;;;;;;;;5.73;100.00;92606.69;4964138;28;19972;-77
2023/03/21 04:26:34;;;;;;;;;;;;;;;5.67;100.00;92608.47;4964493;28;19981;-77
2023/03/21 04:29:28;;;;;;;;;;;;;;;5.64;100.00;92601.97;4965404;28;20322;-77
2023/03/21 04:32:32;;;;;;;;;;;;;;;5.60;100.00;92597.53;4927491;29;20054;-79
2023/03/21 04:35:08;;;;;;;;;;;;;;;5.56;100.00;92597.28;4926043;29;19919;-79
2023/03/21 04:37:34;;;;;;;;;;;;;;;5.53;100.00;92600.34;4939941;28;20387;-79
2023/03/21 04:40:05;;;;;;;;;;;;;;;5.50;100.00;92598.28;4967687;28;20335;-78
2023/03/21 04:42:31;;;;;;;;;;;;;;;5.49;100.00;92595.91;4965649;28;20312;-79
2023/03/21 04:44:57;;;;;;;;;;;;;;;5.46;100.00;92602.41;4935511;28;19922;-78
2023/03/21 04:47:22;;;;;;;;;;;;;;;5.45;100.00;92598.25;4968259;28;19923;-78
2023/03/21 04:49:49;;;;;;;;;;;;;;;5.43;100.00;92597.72;4991563;28;20407;-78
2023/03/21 04:52:15;;;;;;;;;;;;;;;5.43;100.00;92592.53;4983751;28;19919;-78
2023/03/21 04:54:40;;;;;;;;;;;;;;;5.40;100.00;92593.00;4982270;28;20273;-78
2023/03/21 04:57:06;;;;;;;;;;;;;;;5.43;100.00;92597.72;4966156;28;19918;-78
2023/03/21 04:59:32;;;;;;;;;;;;;;;5.41;100.00;92592.75;4965336;28;19918;-78
2023/03/21 05:01:58;;;;;;;;;;;;;;;5.41;100.00;92592.00;4972747;28;20384;-78
2023/03/21 05:04:25;;;;;;;;;;;;;;;5.38;100.00;92589.88;4966227;28;19923;-78
2023/03/21 05:06:51;;;;;;;;;;;;;;;5.41;100.00;92584.19;4966989;28;19976;-78
2023/03/21 05:09:17;;;;;;;;;;;;;;;5.42;100.00;92585.75;4983683;28;19914;-78
2023/03/21 05:11:42;;;;;;;;;;;;;;;5.46;100.00;92581.63;4965089;28;19945;-78
2023/03/21 05:14:12;;;;;;;;;;;;;;;5.54;100.00;92588.94;4983123;28;19945;-78
2023/03/21 05:16:47;;;;;;;;;;;;;;;5.61;100.00;92584.31;4967066;28;19922;-78
2023/03/21 05:19:16;;;;;;;;;;;;;;;5.75;100.00;92586.44;4970762;28;20008;-78
2023/03/21 05:21:42;;;;;;;;;;;;;;;5.81;100.00;92585.44;4981850;28;19926;-78
2023/03/21 05:24:21;;;;;;;;;;;;;;;5.82;100.00;92581.78;4965671;28;19961;-78
2023/03/21 05:26:51;;;;;;;;;;;;;;;5.78;100.00;92581.50;4970018;28;19922;-78
2023/03/21 05:29:20;;;;;;;;;;;;;;;5.73;100.00;92584.09;4980913;28;20033;-78
2023/03/21 05:31:53;;;;;;;;;;;;;;;5.64;100.00;92583.78;4966896;28;19950;-78
2023/03/21 05:34:19;;;;;;;;;;;;;;;5.58;100.00;92584.81;4967793;28;19918;-78
2023/03/21 05:36:45;;;;;;;;;;;;;;;5.54;100.00;92594.16;4965936;28;19925;-78
2023/03/21 05:39:11;;;;;;;;;;;;;;;5.53;100.00;92591.78;4964117;28;19928;-78
2023/03/21 05:41:41;;;;;;;;;;;;;;;5.52;100.00;92595.44;4987097;28;19917;-78
2023/03/21 05:44:07;;;;;;;;;;;;;;;5.50;100.00;92593.06;4967870;28;20254;-77
2023/03/21 05:46:35;;;;;;;;;;;;;;;5.50;100.00;92595.66;4978976;28;19961;-79
2023/03/21 05:49:02;;;;;;;;;;;;;;;5.62;100.00;92595.47;4970086;28;20345;-79
2023/03/21 05:51:27;;;;;;;;;;;;;;;5.94;100.00;92603.16;4969914;28;19994;-79
2023/03/21 05:53:54;;;;;;;;;;;;;;;6.32;100.00;92603.03;4966744;28;19918;-79
2023/03/21 05:56:20;;;;;;;;;;;;;;;6.67;100.00;92600.50;4968464;28;20008;-79
2023/03/21 05:58:58;;;;;;;;;;;;;;;7.08;100.00;92599.72;4978395;28;19918;-79
2023/03/21 06:01:25;;;;;;;;;;;;;;;7.49;100.00;92602.28;4987491;28;19921;-80
2023/03/21 06:04:06;;;;;;;;;;;;;;;7.89;100.00;92595.41;4971992;28;20320;-80
2023/03/21 06:06:35;;;;;;;;;;;;;;;8.16;100.00;92596.88;4974894;28;19922;-79
2023/03/21 06:09:02;;;;;;;;;;;;;;;8.50;100.00;92602.19;4976434;28;19914;-78
2023/03/21 06:11:31;;;;;;;;;;;;;;;8.87;100.00;92601.69;4971023;28;19973;-81
2023/03/21 06:14:19;;;;;;;;;;;;;;;9.42;100.00;92608.56;4978659;28;20435;-79
2023/03/21 06:16:52;;;;;;;;;;;;;;;9.85;100.00;92600.81;4974503;28;20016;-79
2023/03/21 06:19:20;;;;;;;;;;;;;;;10.41;100.00;92608.03;4969081;28;19918;-78
2023/03/21 06:22:11;;;;;;;;;;;;;;;10.98;100.00;92600.94;4973834;28;20396;-81
2023/03/21 06:24:39;;;;;;;;;;;;;;;11.44;97.75;92597.63;4961031;28;19918;-81
2023/03/21 06:27:06;;;;;;;;;;;;;;;11.74;96.46;92603.38;4975670;28;19929;-81
2023/03/21 06:29:46;;;;;;;;;;;;;;;12.16;94.34;92598.97;4975230;28;20380;-80
2023/03/21 06:32:13;;;;;;;;;;;;;;;12.46;90.23;92592.31;4989380;28;19926;-80
2023/03/21 06:34:41;;;;;;;;;;;;;;;13.05;89.91;92592.34;4962834;28;19952;-81
2023/03/21 06:37:11;;;;;;;;;;;;;;;13.32;86.14;92595.97;4975621;28;19921;-81
2023/03/21 06:39:38;;;;;;;;;;;;;;;13.72;82.91;92599.44;4971120;28;19915;-81
2023/03/21 06:42:04;;;;;;;;;;;;;;;14.14;82.33;92605.19;4971625;28;19926;-81
2023/03/21 06:44:29;;;;;;;;;;;;;;;15.17;79.59;92600.38;4975165;28;20025;-80
2023/03/21 06:47:01;;;;;;;;;;;;;;;15.88;71.89;92599.22;4975278;28;20419;-81
2023/03/21 06:49:26;;;;;;;;;;;;;;;15.60;73.68;92602.22;4974762;28;19918;-81
2023/03/21 06:51:59;;;;;;;;;;;;;;;15.76;71.79;92602.53;4976215;28;19914;-80
2023/03/21 06:54:26;;;;;;;;;;;;;;;15.66;68.78;92597.53;4960853;28;19996;-80
2023/03/21 06:57:03;;;;;;;;;;;;;;;15.92;68.32;92594.84;4959790;28;20000;-82
2023/03/21 06:59:32;;;;;;;;;;;;;;;16.17;68.37;92593.22;4971564;28;20004;-80
2023/03/21 07:02:04;;;;;;;;;;;;;;;16.06;68.41;92597.28;4991036;28;19996;-80
2023/03/21 07:04:35;;;;;;;;;;;;;;;16.60;64.32;92596.72;4976051;28;19922;-80
2023/03/21 07:07:01;;;;;;;;;;;;;;;16.23;67.88;92599.88;4976448;28;19918;-80
2023/03/21 07:09:27;;;;;;;;;;;;;;;17.00;63.25;92599.75;4961315;28;19914;-81
2023/03/21 07:12:05;;;;;;;;;;;;;;;17.75;60.43;92595.50;4977828;28;19914;-81
2023/03/21 07:14:48;;;;;;;;;;;;;;;17.38;61.07;92598.03;4960423;28;19914;-81
2023/03/21 07:17:13;;;;;;;;;;;;;;;17.16;61.20;92593.88;4960664;28;19927;-80
2023/03/21 07:19:51;;;;;;;;;;;;;;;16.96;61.85;92588.25;4959036;29;19983;-81
2023/03/21 07:22:17;;;;;;;;;;;;;;;17.30;60.75;92597.00;4958712;29;19914;-81
2023/03/21 07:24:47;;;;;;;;;;;;;;;16.21;64.50;92593.31;4971663;28;20008;-81
2023/03/21 07:27:14;;;;;;;;;;;;;;;15.60;65.01;92594.31;4976386;28;19918;-81
2023/03/21 07:29:42;;;;;;;;;;;;;;;14.55;69.26;92593.53;4977261;28;20391;-80
2023/03/21 07:32:11;;;;;;;;;;;;;;;14.34;69.74;92598.59;4980133;28;19921;-78
2023/03/21 07:34:36;;;;;;;;;;;;;;;14.53;71.49;92593.03;4980089;28;19957;-79
2023/03/21 07:37:22;;;;;;;;;;;;;;;14.57;68.63;92596.66;4979154;28;19922;-81
2023/03/21 07:39:53;;;;;;;;;;;;;;;14.11;69.30;92594.47;4975854;28;19921;-77
2023/03/21 07:42:19;;;;;;;;;;;;;;;13.69;71.12;92591.34;4975370;28;20268;-79
2023/03/21 07:45:07;;;;;;;;;;;;;;;13.10;72.65;92588.81;4977625;28;19928;-80
2023/03/21 07:48:09;;;;;;;;;;;;;;;12.87;72.68;92601.16;4977423;28;19925;-79
2023/03/21 07:50:36;;;;;;;;;;;;;;;13.11;71.88;92593.78;4976988;28;20291;-81
2023/03/21 07:53:02;;;;;;;;;;;;;;;13.36;73.63;92607.44;4976705;28;19914;-80
2023/03/21 07:55:28;;;;;;;;;;;;;;;13.37;72.76;92605.56;4978011;28;19941;-80
2023/03/21 07:57:55;;;;;;;;;;;;;;;13.75;69.61;92605.94;4978050;28;19914;-79
2023/03/21 08:00:41;;;;;;;;;;;;;;;13.56;70.31;92605.41;4976797;28;20380;-79
2023/03/21 08:12:19;;;;;;;;;;;;;;;13.82;70.57;92610.78;4977440;28;19914;-80
2023/03/21 08:15:16;;;;;;;;;;;;;;;13.68;69.66;92616.13;4977943;28;19914;-80
2023/03/21 08:17:44;;;;;;;;;;;;;;;13.58;70.65;92614.53;4977376;28;19914;-80
2023/03/21 08:20:22;;;;;;;;;;;;;;;14.14;67.89;92609.69;4976238;28;20311;-80
2023/03/21 08:29:39;;;;;;;;;;;;;;;13.79;70.36;92619.28;4977960;28;19921;-80
2023/03/21 08:32:05;;;;;;;;;;;;;;;14.18;64.92;92620.38;4978348;28;19952;-80
2023/03/21 08:34:48;;;;;;;;;;;;;;;14.12;67.12;92612.63;4978305;28;19914;-80
2023/03/21 08:40:49;;;;;;;;;;;;;;;13.94;67.21;92614.41;4981583;28;19921;-80
2023/03/21 08:43:15;;;;;;;;;;;;;;;13.87;68.37;92616.69;4980758;28;19926;-79
2023/03/21 08:45:42;;;;;;;;;;;;;;;13.63;70.68;92616.25;4980452;28;20000;-78
2023/03/21 08:48:19;;;;;;;;;;;;;;;13.85;67.81;92618.84;4981027;28;20001;-80
2023/03/21 08:51:01;;;;;;;;;;;;;;;13.69;68.00;92610.56;4981648;28;19914;-80
2023/03/21 08:53:51;;;;;;;;;;;;;;;13.44;68.76;92619.06;4979826;28;19921;-80
2023/03/21 08:56:34;;;;;;;;;;;;;;;13.28;65.85;92616.03;4981578;28;19950;-80
2023/03/21 08:59:03;;;;;;;;;;;;;;;13.07;67.97;92618.34;4980300;28;19914;-80
2023/03/21 09:01:40;;;;;;;;;;;;;;;13.28;68.86;92611.56;4981373;28;19921;-79
2023/03/21 09:04:19;;;;;;;;;;;;;;;13.53;69.15;92612.81;4980765;28;19941;-80
2023/03/21 09:06:55;;;;;;;;;;;;;;;13.77;65.33;92611.69;4981373;28;19914;-80
2023/03/21 09:09:22;;;;;;;;;;;;;;;13.50;63.81;92616.03;4980720;28;19914;-80
2023/03/21 09:12:14;;;;;;;;;;;;;;;13.27;62.96;92611.81;4979387;28;20438;-79
2023/03/21 09:14:40;;;;;;;;;;;;;;;13.31;64.18;92612.81;4980076;28;20005;-78
2023/03/21 09:17:05;;;;;;;;;;;;;;;13.42;64.74;92610.69;4974528;28;20603;-82
2023/03/21 09:19:30;;;;;;;;;;;;;;;13.49;66.68;92609.22;4976442;28;19918;-79
2023/03/21 09:21:56;;;;;;;;;;;;;;;13.32;66.26;92611.72;4973803;28;19976;-80
2023/03/21 09:24:22;;;;;;;;;;;;;;;13.70;67.11;92612.13;4975485;28;19928;-81
2023/03/21 09:26:49;;;;;;;;;;;;;;;13.58;64.17;92605.84;4991672;28;19992;-80
2023/03/21 09:29:15;;;;;;;;;;;;;;;13.59;66.17;92604.78;4974185;28;19918;-79
2023/03/21 09:31:42;;;;;;;;;;;;;;;13.73;64.98;92606.25;4958796;29;20396;-81
2023/03/21 09:34:08;;;;;;;;;;;;;;;13.69;65.70;92607.13;4974666;28;19918;-80
2023/03/21 09:36:35;;;;;;;;;;;;;;;13.65;66.42;92614.09;4963573;28;19918;-80
2023/03/21 09:39:03;;;;;;;;;;;;;;;14.16;64.13;92610.94;4972731;28;20471;-80
2023/03/21 09:41:40;;;;;;;;;;;;;;;14.16;64.23;92610.94;4971839;28;20376;-79
2023/03/21 09:44:23;;;;;;;;;;;;;;;14.08;63.22;92605.63;4975603;28;19942;-79
2023/03/21 09:46:49;;;;;;;;;;;;;;;13.78;64.08;92609.81;4973105;28;19922;-80
2023/03/21 09:49:20;;;;;;;;;;;;;;;13.58;65.74;92619.00;4966850;28;20470;-79
2023/03/21 09:51:49;;;;;;;;;;;;;;;13.93;64.55;92612.84;4970734;28;19918;-79
2023/03/21 09:54:24;;;;;;;;;;;;;;;14.12;65.77;92611.84;4974567;28;19953;-81
2023/03/21 09:56:52;;;;;;;;;;;;;;;14.26;62.24;92617.00;4972805;28;19921;-81
2023/03/21 09:59:30;;;;;;;;;;;;;;;14.49;62.96;92620.31;4975267;28;20383;-81
2023/03/21 10:01:56;;;;;;;;;;;;;;;14.57;62.58;92619.59;4973790;28;19914;-80
2023/03/21 10:04:22;;;;;;;;;;;;;;;14.49;62.04;92622.94;4974204;28;19952;-80
2023/03/21 10:06:54;;;;;;;;;;;;;;;14.31;62.67;92625.53;4972117;28;19914;-81
2023/03/21 10:09:23;;;;;;;;;;;;;;;14.43;62.74;92619.66;4965307;28;19942;-79
2023/03/21 10:11:57;;;;;;;;;;;;;;;14.52;62.68;92620.47;4967135;28;19910;-81
2023/03/21 10:14:31;;;;;;;;;;;;;;;14.45;61.30;92619.38;4972284;28;19992;-81
2023/03/21 10:17:15;;;;;;;;;;;;;;;14.19;62.99;92617.44;4974273;28;19921;-80
2023/03/21 10:19:45;;;;;;;;;;;;;;;14.23;63.40;92617.59;4971068;28;19957;-81
2023/03/21 10:22:11;;;;;;;;;;;;;;;14.36;61.06;92614.88;4972460;28;19989;-78
2023/03/21 10:24:36;;;;;;;;;;;;;;;14.01;60.48;92618.47;4975639;28;20005;-81
2023/03/21 10:27:03;;;;;;;;;;;;;;;13.78;61.44;92612.44;4976080;28;19914;-80
2023/03/21 10:29:41;;;;;;;;;;;;;;;13.85;61.38;92621.47;4973412;28;20034;-81
2023/03/21 10:32:08;;;;;;;;;;;;;;;13.73;61.21;92621.25;4973033;28;19960;-81
2023/03/21 10:34:39;;;;;;;;;;;;;;;13.71;61.46;92621.56;4974503;28;19922;-79
2023/03/21 10:37:05;;;;;;;;;;;;;;;13.79;61.90;92625.31;4968387;28;19922;-79
2023/03/21 10:39:30;;;;;;;;;;;;;;;13.76;60.81;92623.28;4972096;28;20554;-80
2023/03/21 10:41:56;;;;;;;;;;;;;;;13.61;60.69;92621.03;4987862;28;19922;-79
2023/03/21 10:44:27;;;;;;;;;;;;;;;13.53;61.76;92628.59;4975344;28;19929;-80
2023/03/21 10:46:54;;;;;;;;;;;;;;;13.64;61.42;92623.06;4975193;28;19921;-78
2023/03/21 10:49:20;;;;;;;;;;;;;;;13.61;61.87;92613.91;4987833;28;19921;-80
2023/03/21 10:51:46;;;;;;;;;;;;;;;13.47;61.43;92619.25;4983863;28;20307;-78
2023/03/21 10:54:14;;;;;;;;;;;;;;;13.86;62.92;92620.38;4958877;28;20293;-80
2023/03/21 10:56:44;;;;;;;;;;;;;;;13.89;61.97;92619.81;4963420;28;19921;-81
2023/03/21 10:59:15;;;;;;;;;;;;;;;14.12;61.96;92611.84;4956421;28;19921;-79
2023/03/21 11:01:42;;;;;;;;;;;;;;;14.32;61.62;92611.28;4969011;28;19945;-78
2023/03/21 11:04:13;;;;;;;;;;;;;;;14.23;59.88;92607.84;4969434;28;19921;-79
2023/03/21 11:06:40;;;;;;;;;;;;;;;14.11;59.56;92618.16;4992382;28;20295;-81
2023/03/21 11:09:13;;;;;;;;;;;;;;;14.11;60.05;92618.16;4972236;28;19942;-79
2023/03/21 11:11:40;;;;;;;;;;;;;;;14.15;61.08;92616.50;4965229;28;19921;-81
2023/03/21 11:14:08;;;;;;;;;;;;;;;14.27;59.53;92610.63;4978174;28;19921;-80
2023/03/21 11:16:41;;;;;;;;;;;;;;;13.95;60.92;92610.69;4970494;28;19925;-79
2023/03/21 11:19:18;;;;;;;;;;;;;;;14.04;61.77;92605.44;4985005;28;19914;-80
2023/03/21 11:21:44;;;;;;;;;;;;;;;14.20;61.53;92607.69;4975898;28;19918;-80
2023/03/21 11:24:15;;;;;;;;;;;;;;;14.31;60.49;92607.09;4972703;28;19926;-79
2023/03/21 11:26:43;;;;;;;;;;;;;;;14.20;59.68;92610.31;4962826;28;19949;-79
2023/03/21 11:29:31;;;;;;;;;;;;;;;14.32;58.78;92606.03;4970889;28;19941;-78
2023/03/21 11:32:07;;;;;;;;;;;;;;;14.69;59.87;92603.94;4973262;28;19921;-79
2023/03/21 11:34:41;;;;;;;;;;;;;;;14.49;59.09;92600.00;4963604;28;19918;-80
2023/03/21 11:37:16;;;;;;;;;;;;;;;14.82;59.23;92597.00;4970498;28;19953;-80
2023/03/21 11:39:43;;;;;;;;;;;;;;;15.15;58.93;92593.88;4974849;28;19917;-80
2023/03/21 11:42:28;;;;;;;;;;;;;;;15.18;57.03;92578.22;4975361;28;19949;-79
2023/03/21 11:45:02;;;;;;;;;;;;;;;14.76;55.73;92588.44;4962199;28;19929;-80
2023/03/21 11:47:28;;;;;;;;;;;;;;;14.91;58.08;92587.22;4958406;29;19921;-80
2023/03/21 11:49:55;;;;;;;;;;;;;;;14.98;58.15;92578.84;4957828;29;19929;-80
2023/03/21 11:52:25;;;;;;;;;;;;;;;15.09;56.84;92579.31;4958013;28;19918;-80
2023/03/21 11:55:03;;;;;;;;;;;;;;;15.26;55.72;92578.53;4968677;28;19954;-79
2023/03/21 11:57:31;;;;;;;;;;;;;;;15.23;56.47;92565.97;4957955;29;20343;-79
2023/03/21 12:00:03;;;;;;;;;;;;;;;14.80;56.10;92572.03;4956807;29;19933;-79
2023/03/21 12:02:53;;;;;;;;;;;;;;;14.50;56.23;92561.25;4971561;28;19914;-79
2023/03/21 12:05:27;;;;;;;;;;;;;;;14.94;56.12;92564.75;4971789;28;19918;-81
2023/03/21 12:08:00;;;;;;;;;;;;;;;14.99;56.22;92554.84;4958032;28;20311;-82
2023/03/21 12:10:39;;;;;;;;;;;;;;;15.22;54.62;92553.84;4967896;28;19977;-81
2023/03/21 12:13:04;;;;;;;;;;;;;;;15.01;55.36;92554.50;4977136;28;19922;-81
2023/03/21 12:15:35;;;;;;;;;;;;;;;15.07;56.05;92548.00;4975317;28;19961;-80
2023/03/21 12:18:27;;;;;;;;;;;;;;;15.27;55.44;92551.06;4979825;28;20388;-81
2023/03/21 12:20:58;;;;;;;;;;;;;;;15.15;54.12;92552.50;4959319;28;19921;-80
2023/03/21 12:23:53;;;;;;;;;;;;;;;15.09;54.59;92543.19;4976593;28;19926;-81
2023/03/21 12:26:25;;;;;;;;;;;;;;;15.10;56.22;92544.72;4967627;28;19914;-80
2023/03/21 12:28:51;;;;;;;;;;;;;;;15.25;55.39;92540.06;4976998;28;19925;-80
2023/03/21 12:31:16;;;;;;;;;;;;;;;15.30;54.48;92537.25;4981434;28;19910;-81
2023/03/21 12:33:42;;;;;;;;;;;;;;;15.18;56.17;92536.03;4979695;28;19914;-80
2023/03/21 12:36:11;;;;;;;;;;;;;;;15.31;55.28;92530.88;4970463;28;19914;-79
2023/03/21 12:38:55;;;;;;;;;;;;;;;15.07;53.99;92526.91;4973725;28;19925;-81
2023/03/21 12:41:26;;;;;;;;;;;;;;;15.13;54.79;92530.13;4976678;28;19921;-80
2023/03/21 12:44:00;;;;;;;;;;;;;;;14.94;55.57;92525.22;4959604;29;19929;-80
2023/03/21 12:46:26;;;;;;;;;;;;;;;15.12;55.11;92504.88;4972968;28;20004;-80
2023/03/21 12:48:55;;;;;;;;;;;;;;;15.17;55.75;92520.53;4979040;28;19957;-79
2023/03/21 12:51:28;;;;;;;;;;;;;;;15.51;54.42;92510.97;4960836;28;20009;-80
2023/03/21 12:53:53;;;;;;;;;;;;;;;15.62;55.20;92515.59;4986219;28;19940;-79
2023/03/21 12:56:22;;;;;;;;;;;;;;;15.60;54.44;92512.50;4976875;28;19914;-78
2023/03/21 12:58:51;;;;;;;;;;;;;;;15.44;54.41;92500.91;4979677;28;19921;-80
2023/03/21 13:01:18;;;;;;;;;;;;;;;15.43;53.54;92499.38;4977770;28;20268;-79
2023/03/21 13:03:49;;;;;;;;;;;;;;;15.36;54.70;92489.31;4979340;28;19981;-78
2023/03/21 13:06:17;;;;;;;;;;;;;;;15.39;53.92;92487.91;4974459;28;20232;-81
2023/03/21 13:08:53;;;;;;;;;;;;;;;15.58;53.39;92485.66;4969112;28;20008;-81
2023/03/21 13:11:21;;;;;;;;;;;;;;;15.34;53.36;92480.16;4976520;28;19914;-80
2023/03/21 13:14:06;;;;;;;;;;;;;;;15.47;54.24;92483.66;4973521;28;20364;-81
2023/03/21 13:16:31;;;;;;;;;;;;;;;15.36;53.20;92481.41;4964247;28;19918;-81
2023/03/21 13:18:57;;;;;;;;;;;;;;;15.40;54.53;92484.16;4977748;28;19937;-79
2023/03/21 13:21:33;;;;;;;;;;;;;;;15.30;54.06;92479.25;4976460;28;19918;-80
2023/03/21 13:24:00;;;;;;;;;;;;;;;15.36;54.49;92475.34;4986735;28;19991;-80
2023/03/21 13:26:33;;;;;;;;;;;;;;;15.36;53.85;92478.00;4980187;28;19937;-81